sensor_id;sensor_type;location;lat;lon;timestamp;P1;durP1;ratioP1;P2;durP2;ratioP2
5587;SDS011;2816;49.778;9.986;2022-10-03T00:02:29;7.80;;;7.00;;
5587;SDS011;2816;49.778;9.986;2022-10-03T00:05:17;8.33;;;6.60;;
5587;SDS011;2816;49.778;9.986;2022-10-03T00:08:07;12.30;;;7.60;;
5587;SDS011;2816;49.778;9.986;2022-10-03T00:10:45;10.03;;;7.30;;
5587;SDS011;2816;49.778;9.986;2022-10-03T00:13:23;8.67;;;7.77;;
5587;SDS011;2816;49.778;9.986;2022-10-03T00:16:05;12.23;;;7.70;;
5587;SDS011;2816;49.778;9.986;2022-10-03T00:18:50;10.80;;;7.80;;
5587;SDS011;2816;49.778;9.986;2022-10-03T00:21:34;13.23;;;8.40;;
5587;SDS011;2816;49.778;9.986;2022-10-03T00:24:10;12.17;;;7.67;;
5587;SDS011;2816;49.778;9.986;2022-10-03T00:26:45;9.50;;;7.07;;
5587;SDS011;2816;49.778;9.986;2022-10-03T00:29:19;9.87;;;7.70;;
5587;SDS011;2816;49.778;9.986;2022-10-03T00:32:06;9.10;;;7.87;;
5587;SDS011;2816;49.778;9.986;2022-10-03T00:34:51;8.67;;;7.20;;
5587;SDS011;2816;49.778;9.986;2022-10-03T00:37:32;8.33;;;6.60;;
5587;SDS011;2816;49.778;9.986;2022-10-03T00:50:02;8.37;;;6.90;;
5587;SDS011;2816;49.778;9.986;2022-10-03T00:52:49;8.63;;;7.70;;
5587;SDS011;2816;49.778;9.986;2022-10-03T00:55:30;13.77;;;7.97;;
5587;SDS011;2816;49.778;9.986;2022-10-03T00:58:13;8.43;;;7.53;;
5587;SDS011;2816;49.778;9.986;2022-10-03T01:00:51;10.13;;;7.50;;
5587;SDS011;2816;49.778;9.986;2022-10-03T01:03:30;8.20;;;7.33;;
5587;SDS011;2816;49.778;9.986;2022-10-03T01:06:10;12.77;;;7.70;;
5587;SDS011;2816;49.778;9.986;2022-10-03T01:08:52;11.53;;;8.37;;
5587;SDS011;2816;49.778;9.986;2022-10-03T01:11:48;10.10;;;7.70;;
5587;SDS011;2816;49.778;9.986;2022-10-03T01:14:36;8.83;;;7.90;;
5587;SDS011;2816;49.778;9.986;2022-10-03T01:17:14;13.83;;;7.30;;
5587;SDS011;2816;49.778;9.986;2022-10-03T01:20:01;9.33;;;7.60;;
5587;SDS011;2816;49.778;9.986;2022-10-03T01:22:54;8.27;;;7.40;;
5587;SDS011;2816;49.778;9.986;2022-10-03T01:25:42;9.53;;;7.00;;
5587;SDS011;2816;49.778;9.986;2022-10-03T01:31:33;14.73;;;7.37;;
5587;SDS011;2816;49.778;9.986;2022-10-03T01:34:10;10.63;;;7.13;;
5587;SDS011;2816;49.778;9.986;2022-10-03T01:36:43;8.73;;;7.10;;
5587;SDS011;2816;49.778;9.986;2022-10-03T01:39:20;11.97;;;8.13;;
5587;SDS011;2816;49.778;9.986;2022-10-03T01:41:56;10.20;;;8.30;;
5587;SDS011;2816;49.778;9.986;2022-10-03T01:44:30;11.73;;;8.80;;
5587;SDS011;2816;49.778;9.986;2022-10-03T01:47:08;12.70;;;8.67;;
5587;SDS011;2816;49.778;9.986;2022-10-03T01:49:44;11.03;;;8.30;;
5587;SDS011;2816;49.778;9.986;2022-10-03T01:52:21;10.33;;;8.70;;
5587;SDS011;2816;49.778;9.986;2022-10-03T01:54:55;11.73;;;8.63;;
5587;SDS011;2816;49.778;9.986;2022-10-03T01:57:31;13.03;;;8.33;;
5587;SDS011;2816;49.778;9.986;2022-10-03T02:00:07;13.30;;;8.30;;
5587;SDS011;2816;49.778;9.986;2022-10-03T02:02:41;10.90;;;8.70;;
5587;SDS011;2816;49.778;9.986;2022-10-03T02:05:14;10.40;;;9.20;;
5587;SDS011;2816;49.778;9.986;2022-10-03T02:07:46;12.93;;;8.50;;
5587;SDS011;2816;49.778;9.986;2022-10-03T02:10:25;11.73;;;8.13;;
5587;SDS011;2816;49.778;9.986;2022-10-03T02:13:02;13.00;;;8.57;;
5587;SDS011;2816;49.778;9.986;2022-10-03T02:15:45;12.97;;;9.17;;
5587;SDS011;2816;49.778;9.986;2022-10-03T02:18:23;13.80;;;8.23;;
5587;SDS011;2816;49.778;9.986;2022-10-03T02:20:57;13.43;;;8.50;;
5587;SDS011;2816;49.778;9.986;2022-10-03T02:23:37;12.83;;;8.90;;
5587;SDS011;2816;49.778;9.986;2022-10-03T02:29:17;11.13;;;8.47;;
5587;SDS011;2816;49.778;9.986;2022-10-03T02:41:15;11.63;;;9.00;;
5587;SDS011;2816;49.778;9.986;2022-10-03T02:44:14;10.07;;;8.60;;
5587;SDS011;2816;49.778;9.986;2022-10-03T02:47:06;12.77;;;8.13;;
5587;SDS011;2816;49.778;9.986;2022-10-03T02:50:04;12.73;;;8.00;;
5587;SDS011;2816;49.778;9.986;2022-10-03T02:53:09;9.83;;;8.63;;
5587;SDS011;2816;49.778;9.986;2022-10-03T02:59:54;12.57;;;8.33;;
5587;SDS011;2816;49.778;9.986;2022-10-03T03:05:38;8.73;;;7.80;;
5587;SDS011;2816;49.778;9.986;2022-10-03T03:14:56;12.53;;;9.70;;
5587;SDS011;2816;49.778;9.986;2022-10-03T03:17:49;8.60;;;7.70;;
5587;SDS011;2816;49.778;9.986;2022-10-03T03:20:27;10.50;;;8.17;;
5587;SDS011;2816;49.778;9.986;2022-10-03T03:23:10;11.13;;;8.57;;
5587;SDS011;2816;49.778;9.986;2022-10-03T03:28:55;14.67;;;8.80;;
5587;SDS011;2816;49.778;9.986;2022-10-03T03:31:32;11.50;;;9.40;;
5587;SDS011;2816;49.778;9.986;2022-10-03T03:34:08;16.63;;;8.87;;
5587;SDS011;2816;49.778;9.986;2022-10-03T03:36:46;14.33;;;8.90;;
5587;SDS011;2816;49.778;9.986;2022-10-03T03:39:30;10.67;;;8.10;;
5587;SDS011;2816;49.778;9.986;2022-10-03T03:42:24;15.07;;;8.53;;
5587;SDS011;2816;49.778;9.986;2022-10-03T03:45:07;17.97;;;9.53;;
5587;SDS011;2816;49.778;9.986;2022-10-03T03:47:51;13.83;;;8.63;;
5587;SDS011;2816;49.778;9.986;2022-10-03T03:50:34;9.60;;;8.30;;
5587;SDS011;2816;49.778;9.986;2022-10-03T03:53:28;15.83;;;9.43;;
5587;SDS011;2816;49.778;9.986;2022-10-03T03:56:09;23.50;;;8.40;;
5587;SDS011;2816;49.778;9.986;2022-10-03T03:58:53;11.43;;;8.40;;
5587;SDS011;2816;49.778;9.986;2022-10-03T04:01:36;12.53;;;8.87;;
5587;SDS011;2816;49.778;9.986;2022-10-03T04:04:16;12.43;;;8.93;;
5587;SDS011;2816;49.778;9.986;2022-10-03T04:06:55;11.97;;;8.37;;
5587;SDS011;2816;49.778;9.986;2022-10-03T04:12:46;12.20;;;8.10;;
5587;SDS011;2816;49.778;9.986;2022-10-03T04:15:34;11.83;;;9.10;;
5587;SDS011;2816;49.778;9.986;2022-10-03T04:18:21;17.10;;;9.37;;
5587;SDS011;2816;49.778;9.986;2022-10-03T04:30:14;11.03;;;7.53;;
5587;SDS011;2816;49.778;9.986;2022-10-03T04:32:48;9.13;;;7.50;;
5587;SDS011;2816;49.778;9.986;2022-10-03T04:35:48;13.60;;;8.47;;
5587;SDS011;2816;49.778;9.986;2022-10-03T04:38:38;13.40;;;8.43;;
5587;SDS011;2816;49.778;9.986;2022-10-03T04:41:14;13.93;;;9.17;;
5587;SDS011;2816;49.778;9.986;2022-10-03T04:43:48;14.23;;;9.37;;
5587;SDS011;2816;49.778;9.986;2022-10-03T04:46:25;11.07;;;8.00;;
5587;SDS011;2816;49.778;9.986;2022-10-03T04:48:58;12.60;;;7.93;;
5587;SDS011;2816;49.778;9.986;2022-10-03T04:51:40;13.00;;;8.70;;
5587;SDS011;2816;49.778;9.986;2022-10-03T04:54:16;13.47;;;8.43;;
5587;SDS011;2816;49.778;9.986;2022-10-03T04:56:51;13.50;;;9.03;;
5587;SDS011;2816;49.778;9.986;2022-10-03T04:59:28;17.93;;;8.00;;
5587;SDS011;2816;49.778;9.986;2022-10-03T05:02:07;15.53;;;8.63;;
5587;SDS011;2816;49.778;9.986;2022-10-03T05:04:50;10.93;;;8.40;;
5587;SDS011;2816;49.778;9.986;2022-10-03T05:07:31;10.00;;;7.77;;
5587;SDS011;2816;49.778;9.986;2022-10-03T05:10:17;11.00;;;7.87;;
5587;SDS011;2816;49.778;9.986;2022-10-03T05:12:53;15.93;;;8.83;;
5587;SDS011;2816;49.778;9.986;2022-10-03T05:15:28;11.20;;;7.60;;
5587;SDS011;2816;49.778;9.986;2022-10-03T05:18:01;12.60;;;7.97;;
5587;SDS011;2816;49.778;9.986;2022-10-03T05:20:43;11.87;;;8.50;;
5587;SDS011;2816;49.778;9.986;2022-10-03T05:23:20;10.67;;;7.57;;
5587;SDS011;2816;49.778;9.986;2022-10-03T05:25:57;10.53;;;7.67;;
5587;SDS011;2816;49.778;9.986;2022-10-03T05:28:35;11.10;;;8.27;;
5587;SDS011;2816;49.778;9.986;2022-10-03T05:31:14;12.03;;;7.60;;
5587;SDS011;2816;49.778;9.986;2022-10-03T05:33:57;10.20;;;7.87;;
5587;SDS011;2816;49.778;9.986;2022-10-03T05:39:26;11.83;;;8.50;;
5587;SDS011;2816;49.778;9.986;2022-10-03T05:42:05;10.40;;;8.10;;
5587;SDS011;2816;49.778;9.986;2022-10-03T05:44:42;14.80;;;8.80;;
5587;SDS011;2816;49.778;9.986;2022-10-03T05:47:16;9.33;;;7.07;;
5587;SDS011;2816;49.778;9.986;2022-10-03T05:50:14;13.33;;;8.40;;
5587;SDS011;2816;49.778;9.986;2022-10-03T05:53:03;12.13;;;7.83;;
5587;SDS011;2816;49.778;9.986;2022-10-03T05:55:48;15.83;;;8.07;;
5587;SDS011;2816;49.778;9.986;2022-10-03T06:01:29;15.30;;;8.17;;
5587;SDS011;2816;49.778;9.986;2022-10-03T06:04:22;13.93;;;8.17;;
5587;SDS011;2816;49.778;9.986;2022-10-03T06:07:13;9.90;;;7.90;;
5587;SDS011;2816;49.778;9.986;2022-10-03T06:09:58;12.03;;;8.40;;
5587;SDS011;2816;49.778;9.986;2022-10-03T06:12:51;15.00;;;8.37;;
5587;SDS011;2816;49.778;9.986;2022-10-03T06:15:37;16.30;;;8.80;;
5587;SDS011;2816;49.778;9.986;2022-10-03T06:18:21;13.33;;;8.80;;
5587;SDS011;2816;49.778;9.986;2022-10-03T06:26:49;15.30;;;10.60;;
5587;SDS011;2816;49.778;9.986;2022-10-03T06:29:45;15.40;;;9.03;;
5587;SDS011;2816;49.778;9.986;2022-10-03T06:32:53;14.87;;;9.50;;
5587;SDS011;2816;49.778;9.986;2022-10-03T06:36:00;12.00;;;8.80;;
5587;SDS011;2816;49.778;9.986;2022-10-03T06:39:07;9.73;;;8.20;;
5587;SDS011;2816;49.778;9.986;2022-10-03T06:42:31;11.13;;;8.10;;
5587;SDS011;2816;49.778;9.986;2022-10-03T06:48:18;11.50;;;8.43;;
5587;SDS011;2816;49.778;9.986;2022-10-03T06:51:13;11.40;;;8.07;;
5587;SDS011;2816;49.778;9.986;2022-10-03T06:54:02;10.23;;;8.27;;
5587;SDS011;2816;49.778;9.986;2022-10-03T06:56:47;13.63;;;7.80;;
5587;SDS011;2816;49.778;9.986;2022-10-03T06:59:58;12.47;;;7.73;;
5587;SDS011;2816;49.778;9.986;2022-10-03T07:02:55;8.50;;;6.90;;
5587;SDS011;2816;49.778;9.986;2022-10-03T07:05:55;10.43;;;7.70;;
5587;SDS011;2816;49.778;9.986;2022-10-03T07:27:56;17.63;;;10.20;;
5587;SDS011;2816;49.778;9.986;2022-10-03T07:30:50;12.23;;;10.03;;
5587;SDS011;2816;49.778;9.986;2022-10-03T07:33:35;16.30;;;10.40;;
5587;SDS011;2816;49.778;9.986;2022-10-03T07:36:30;7.83;;;7.00;;
5587;SDS011;2816;49.778;9.986;2022-10-03T07:39:24;12.50;;;8.40;;
5587;SDS011;2816;49.778;9.986;2022-10-03T07:42:27;15.63;;;10.80;;
5587;SDS011;2816;49.778;9.986;2022-10-03T07:48:24;12.30;;;10.27;;
5587;SDS011;2816;49.778;9.986;2022-10-03T07:51:22;17.87;;;11.70;;
5587;SDS011;2816;49.778;9.986;2022-10-03T07:54:18;22.13;;;12.80;;
5587;SDS011;2816;49.778;9.986;2022-10-03T08:11:52;23.60;;;10.60;;
5587;SDS011;2816;49.778;9.986;2022-10-03T08:14:47;24.73;;;9.30;;
5587;SDS011;2816;49.778;9.986;2022-10-03T08:20:26;25.63;;;9.70;;
5587;SDS011;2816;49.778;9.986;2022-10-03T08:26:37;30.20;;;10.83;;
5587;SDS011;2816;49.778;9.986;2022-10-03T08:29:24;20.13;;;10.93;;
5587;SDS011;2816;49.778;9.986;2022-10-03T08:35:18;18.63;;;8.93;;
5587;SDS011;2816;49.778;9.986;2022-10-03T08:38:28;15.50;;;9.53;;
5587;SDS011;2816;49.778;9.986;2022-10-03T08:44:32;20.30;;;10.10;;
5587;SDS011;2816;49.778;9.986;2022-10-03T08:47:13;16.70;;;9.30;;
5587;SDS011;2816;49.778;9.986;2022-10-03T08:50:22;17.90;;;6.53;;
5587;SDS011;2816;49.778;9.986;2022-10-03T08:56:21;14.30;;;6.23;;
5587;SDS011;2816;49.778;9.986;2022-10-03T08:59:01;27.47;;;7.23;;
5587;SDS011;2816;49.778;9.986;2022-10-03T09:11:28;15.80;;;5.37;;
5587;SDS011;2816;49.778;9.986;2022-10-03T09:14:29;15.00;;;5.00;;
5587;SDS011;2816;49.778;9.986;2022-10-03T09:17:34;14.53;;;5.43;;
5587;SDS011;2816;49.778;9.986;2022-10-03T09:20:29;13.73;;;4.87;;
5587;SDS011;2816;49.778;9.986;2022-10-03T09:23:27;9.30;;;4.53;;
5587;SDS011;2816;49.778;9.986;2022-10-03T09:26:16;13.50;;;3.87;;
5587;SDS011;2816;49.778;9.986;2022-10-03T09:38:20;9.90;;;4.43;;
5587;SDS011;2816;49.778;9.986;2022-10-03T09:41:20;11.27;;;4.60;;
5587;SDS011;2816;49.778;9.986;2022-10-03T09:50:22;13.40;;;3.60;;
5587;SDS011;2816;49.778;9.986;2022-10-03T09:53:36;6.40;;;3.53;;
5587;SDS011;2816;49.778;9.986;2022-10-03T09:59:26;12.53;;;3.77;;
5587;SDS011;2816;49.778;9.986;2022-10-03T10:02:20;9.80;;;2.93;;
5587;SDS011;2816;49.778;9.986;2022-10-03T10:05:22;9.00;;;3.17;;
5587;SDS011;2816;49.778;9.986;2022-10-03T10:08:14;11.43;;;3.80;;
5587;SDS011;2816;49.778;9.986;2022-10-03T10:11:14;6.53;;;3.57;;
5587;SDS011;2816;49.778;9.986;2022-10-03T10:14:02;7.10;;;3.10;;
5587;SDS011;2816;49.778;9.986;2022-10-03T10:20:05;11.67;;;3.20;;
5587;SDS011;2816;49.778;9.986;2022-10-03T10:29:04;8.13;;;2.53;;
5587;SDS011;2816;49.778;9.986;2022-10-03T10:35:14;9.03;;;2.87;;
5587;SDS011;2816;49.778;9.986;2022-10-03T10:41:31;8.87;;;2.20;;
5587;SDS011;2816;49.778;9.986;2022-10-03T10:44:29;3.67;;;2.03;;
5587;SDS011;2816;49.778;9.986;2022-10-03T10:50:27;4.67;;;2.23;;
5587;SDS011;2816;49.778;9.986;2022-10-03T10:59:40;10.70;;;2.93;;
5587;SDS011;2816;49.778;9.986;2022-10-03T11:05:58;9.40;;;2.20;;
5587;SDS011;2816;49.778;9.986;2022-10-03T11:09:15;3.30;;;1.90;;
5587;SDS011;2816;49.778;9.986;2022-10-03T11:12:15;6.60;;;1.93;;
5587;SDS011;2816;49.778;9.986;2022-10-03T11:15:21;14.07;;;2.40;;
5587;SDS011;2816;49.778;9.986;2022-10-03T11:18:26;5.70;;;2.30;;
5587;SDS011;2816;49.778;9.986;2022-10-03T11:21:20;6.77;;;2.17;;
5587;SDS011;2816;49.778;9.986;2022-10-03T11:24:34;4.10;;;2.30;;
5587;SDS011;2816;49.778;9.986;2022-10-03T11:30:39;6.37;;;2.20;;
5587;SDS011;2816;49.778;9.986;2022-10-03T11:33:35;7.87;;;2.30;;
5587;SDS011;2816;49.778;9.986;2022-10-03T11:36:26;6.90;;;2.33;;
5587;SDS011;2816;49.778;9.986;2022-10-03T11:39:25;5.90;;;1.93;;
5587;SDS011;2816;49.778;9.986;2022-10-03T11:42:05;7.90;;;2.43;;
5587;SDS011;2816;49.778;9.986;2022-10-03T11:44:43;3.50;;;1.77;;
5587;SDS011;2816;49.778;9.986;2022-10-03T11:47:33;7.13;;;2.23;;
5587;SDS011;2816;49.778;9.986;2022-10-03T11:50:18;11.47;;;1.80;;
5587;SDS011;2816;49.778;9.986;2022-10-03T11:53:26;7.90;;;2.33;;
5587;SDS011;2816;49.778;9.986;2022-10-03T11:56:06;6.87;;;1.73;;
5587;SDS011;2816;49.778;9.986;2022-10-03T11:58:50;5.50;;;1.70;;
5587;SDS011;2816;49.778;9.986;2022-10-03T12:01:34;7.30;;;1.90;;
5587;SDS011;2816;49.778;9.986;2022-10-03T12:04:16;4.13;;;1.60;;
5587;SDS011;2816;49.778;9.986;2022-10-03T12:06:56;5.50;;;2.00;;
5587;SDS011;2816;49.778;9.986;2022-10-03T12:09:45;6.80;;;2.20;;
5587;SDS011;2816;49.778;9.986;2022-10-03T12:12:30;6.77;;;2.50;;
5587;SDS011;2816;49.778;9.986;2022-10-03T12:15:14;5.27;;;2.17;;
5587;SDS011;2816;49.778;9.986;2022-10-03T12:17:51;4.43;;;1.90;;
5587;SDS011;2816;49.778;9.986;2022-10-03T12:20:29;4.17;;;1.90;;
5587;SDS011;2816;49.778;9.986;2022-10-03T12:23:05;6.07;;;2.03;;
5587;SDS011;2816;49.778;9.986;2022-10-03T12:25:45;4.93;;;1.80;;
5587;SDS011;2816;49.778;9.986;2022-10-03T12:28:16;2.83;;;1.63;;
5587;SDS011;2816;49.778;9.986;2022-10-03T12:30:48;3.30;;;1.77;;
5587;SDS011;2816;49.778;9.986;2022-10-03T12:33:35;6.37;;;1.83;;
5587;SDS011;2816;49.778;9.986;2022-10-03T12:36:14;7.20;;;1.70;;
5587;SDS011;2816;49.778;9.986;2022-10-03T12:38:48;3.43;;;1.70;;
5587;SDS011;2816;49.778;9.986;2022-10-03T12:41:24;4.77;;;1.60;;
5587;SDS011;2816;49.778;9.986;2022-10-03T12:44:10;4.20;;;1.80;;
5587;SDS011;2816;49.778;9.986;2022-10-03T12:46:47;4.40;;;1.40;;
5587;SDS011;2816;49.778;9.986;2022-10-03T12:49:23;2.87;;;1.20;;
5587;SDS011;2816;49.778;9.986;2022-10-03T12:52:14;5.17;;;1.40;;
5587;SDS011;2816;49.778;9.986;2022-10-03T12:54:48;2.70;;;1.60;;
5587;SDS011;2816;49.778;9.986;2022-10-03T13:00:17;6.07;;;1.90;;
5587;SDS011;2816;49.778;9.986;2022-10-03T13:02:53;7.33;;;1.77;;
5587;SDS011;2816;49.778;9.986;2022-10-03T13:05:52;3.40;;;1.40;;
5587;SDS011;2816;49.778;9.986;2022-10-03T13:08:39;1.77;;;1.50;;
5587;SDS011;2816;49.778;9.986;2022-10-03T13:11:20;3.63;;;1.50;;
5587;SDS011;2816;49.778;9.986;2022-10-03T13:14:03;5.50;;;1.73;;
5587;SDS011;2816;49.778;9.986;2022-10-03T13:16:42;2.30;;;1.60;;
5587;SDS011;2816;49.778;9.986;2022-10-03T13:19:20;4.60;;;1.50;;
5587;SDS011;2816;49.778;9.986;2022-10-03T13:21:56;6.33;;;1.83;;
5587;SDS011;2816;49.778;9.986;2022-10-03T13:24:38;5.03;;;1.80;;
5587;SDS011;2816;49.778;9.986;2022-10-03T13:27:15;12.47;;;1.90;;
5587;SDS011;2816;49.778;9.986;2022-10-03T13:29:58;4.03;;;1.83;;
5587;SDS011;2816;49.778;9.986;2022-10-03T13:32:31;9.07;;;1.97;;
5587;SDS011;2816;49.778;9.986;2022-10-03T13:35:06;5.73;;;2.13;;
5587;SDS011;2816;49.778;9.986;2022-10-03T13:43:58;4.50;;;1.90;;
5587;SDS011;2816;49.778;9.986;2022-10-03T13:46:30;5.47;;;2.13;;
5587;SDS011;2816;49.778;9.986;2022-10-03T13:49:10;5.13;;;2.10;;
5587;SDS011;2816;49.778;9.986;2022-10-03T13:51:45;2.77;;;1.60;;
5587;SDS011;2816;49.778;9.986;2022-10-03T13:54:19;8.90;;;1.90;;
5587;SDS011;2816;49.778;9.986;2022-10-03T13:57:07;8.43;;;1.97;;
5587;SDS011;2816;49.778;9.986;2022-10-03T13:59:46;4.13;;;1.60;;
5587;SDS011;2816;49.778;9.986;2022-10-03T14:02:32;5.87;;;1.90;;
5587;SDS011;2816;49.778;9.986;2022-10-03T14:05:29;5.67;;;1.90;;
5587;SDS011;2816;49.778;9.986;2022-10-03T14:08:06;5.40;;;2.13;;
5587;SDS011;2816;49.778;9.986;2022-10-03T14:16:41;6.90;;;1.97;;
5587;SDS011;2816;49.778;9.986;2022-10-03T14:19:14;9.20;;;2.10;;
5587;SDS011;2816;49.778;9.986;2022-10-03T14:21:56;7.40;;;3.03;;
5587;SDS011;2816;49.778;9.986;2022-10-03T14:24:53;5.10;;;1.90;;
5587;SDS011;2816;49.778;9.986;2022-10-03T14:27:40;6.73;;;2.30;;
5587;SDS011;2816;49.778;9.986;2022-10-03T14:30:12;6.20;;;3.30;;
5587;SDS011;2816;49.778;9.986;2022-10-03T14:32:56;9.73;;;4.50;;
5587;SDS011;2816;49.778;9.986;2022-10-03T14:35:35;8.07;;;3.20;;
5587;SDS011;2816;49.778;9.986;2022-10-03T14:38:14;5.83;;;2.43;;
5587;SDS011;2816;49.778;9.986;2022-10-03T14:41:12;8.13;;;2.57;;
5587;SDS011;2816;49.778;9.986;2022-10-03T14:43:48;3.73;;;2.13;;
5587;SDS011;2816;49.778;9.986;2022-10-03T14:46:18;5.73;;;2.80;;
5587;SDS011;2816;49.778;9.986;2022-10-03T14:48:51;4.63;;;1.97;;
5587;SDS011;2816;49.778;9.986;2022-10-03T14:51:24;4.10;;;3.03;;
5587;SDS011;2816;49.778;9.986;2022-10-03T14:53:57;5.60;;;2.33;;
5587;SDS011;2816;49.778;9.986;2022-10-03T14:56:30;6.27;;;2.70;;
5587;SDS011;2816;49.778;9.986;2022-10-03T14:59:10;6.80;;;2.67;;
5587;SDS011;2816;49.778;9.986;2022-10-03T15:01:45;5.37;;;2.87;;
5587;SDS011;2816;49.778;9.986;2022-10-03T15:04:19;5.60;;;2.43;;
5587;SDS011;2816;49.778;9.986;2022-10-03T15:06:53;5.60;;;2.57;;
5587;SDS011;2816;49.778;9.986;2022-10-03T15:09:22;8.53;;;2.50;;
5587;SDS011;2816;49.778;9.986;2022-10-03T15:11:53;6.90;;;3.00;;
5587;SDS011;2816;49.778;9.986;2022-10-03T15:14:26;8.40;;;2.50;;
5587;SDS011;2816;49.778;9.986;2022-10-03T15:16:56;10.40;;;2.40;;
5587;SDS011;2816;49.778;9.986;2022-10-03T15:19:28;3.80;;;2.00;;
5587;SDS011;2816;49.778;9.986;2022-10-03T15:22:05;4.10;;;2.93;;
5587;SDS011;2816;49.778;9.986;2022-10-03T15:24:43;7.03;;;3.40;;
5587;SDS011;2816;49.778;9.986;2022-10-03T15:27:13;6.80;;;4.40;;
5587;SDS011;2816;49.778;9.986;2022-10-03T15:29:45;6.80;;;3.10;;
5587;SDS011;2816;49.778;9.986;2022-10-03T15:32:19;3.27;;;2.63;;
5587;SDS011;2816;49.778;9.986;2022-10-03T15:34:54;4.43;;;2.40;;
5587;SDS011;2816;49.778;9.986;2022-10-03T15:37:24;10.93;;;4.47;;
5587;SDS011;2816;49.778;9.986;2022-10-03T15:40:00;8.80;;;3.60;;
5587;SDS011;2816;49.778;9.986;2022-10-03T15:42:31;10.00;;;4.60;;
5587;SDS011;2816;49.778;9.986;2022-10-03T15:45:09;14.50;;;3.90;;
5587;SDS011;2816;49.778;9.986;2022-10-03T15:47:45;6.47;;;2.83;;
5587;SDS011;2816;49.778;9.986;2022-10-03T15:50:18;7.50;;;3.53;;
5587;SDS011;2816;49.778;9.986;2022-10-03T15:52:49;12.30;;;3.00;;
5587;SDS011;2816;49.778;9.986;2022-10-03T15:55:19;7.53;;;3.07;;
5587;SDS011;2816;49.778;9.986;2022-10-03T15:57:51;5.00;;;2.63;;
5587;SDS011;2816;49.778;9.986;2022-10-03T16:00:25;10.03;;;4.13;;
5587;SDS011;2816;49.778;9.986;2022-10-03T16:02:56;6.93;;;3.37;;
5587;SDS011;2816;49.778;9.986;2022-10-03T16:05:35;10.50;;;3.70;;
5587;SDS011;2816;49.778;9.986;2022-10-03T16:08:08;9.10;;;3.97;;
5587;SDS011;2816;49.778;9.986;2022-10-03T16:10:41;8.13;;;3.27;;
5587;SDS011;2816;49.778;9.986;2022-10-03T16:13:20;7.63;;;4.50;;
5587;SDS011;2816;49.778;9.986;2022-10-03T16:15:56;10.37;;;3.73;;
5587;SDS011;2816;49.778;9.986;2022-10-03T16:18:44;11.23;;;5.57;;
5587;SDS011;2816;49.778;9.986;2022-10-03T16:21:21;8.90;;;5.10;;
5587;SDS011;2816;49.778;9.986;2022-10-03T16:24:04;9.90;;;5.30;;
5587;SDS011;2816;49.778;9.986;2022-10-03T16:26:33;9.83;;;5.70;;
5587;SDS011;2816;49.778;9.986;2022-10-03T16:29:11;11.50;;;5.90;;
5587;SDS011;2816;49.778;9.986;2022-10-03T16:31:44;11.70;;;6.70;;
5587;SDS011;2816;49.778;9.986;2022-10-03T16:34:15;17.47;;;5.50;;
5587;SDS011;2816;49.778;9.986;2022-10-03T16:36:48;15.07;;;6.90;;
5587;SDS011;2816;49.778;9.986;2022-10-03T16:39:19;12.47;;;3.83;;
5587;SDS011;2816;49.778;9.986;2022-10-03T16:41:49;12.73;;;5.63;;
5587;SDS011;2816;49.778;9.986;2022-10-03T16:44:19;12.33;;;6.27;;
5587;SDS011;2816;49.778;9.986;2022-10-03T16:46:50;20.63;;;9.90;;
5587;SDS011;2816;49.778;9.986;2022-10-03T16:49:27;14.43;;;7.20;;
5587;SDS011;2816;49.778;9.986;2022-10-03T16:52:19;14.27;;;6.33;;
5587;SDS011;2816;49.778;9.986;2022-10-03T16:54:55;13.03;;;6.90;;
5587;SDS011;2816;49.778;9.986;2022-10-03T16:57:28;14.00;;;6.70;;
5587;SDS011;2816;49.778;9.986;2022-10-03T16:59:58;12.40;;;4.20;;
5587;SDS011;2816;49.778;9.986;2022-10-03T17:02:31;7.53;;;4.30;;
5587;SDS011;2816;49.778;9.986;2022-10-03T17:05:03;10.00;;;5.13;;
5587;SDS011;2816;49.778;9.986;2022-10-03T17:07:37;8.37;;;4.43;;
5587;SDS011;2816;49.778;9.986;2022-10-03T17:10:16;8.37;;;4.60;;
5587;SDS011;2816;49.778;9.986;2022-10-03T17:12:52;8.20;;;4.23;;
5587;SDS011;2816;49.778;9.986;2022-10-03T17:15:25;11.57;;;5.10;;
5587;SDS011;2816;49.778;9.986;2022-10-03T17:17:56;7.93;;;4.17;;
5587;SDS011;2816;49.778;9.986;2022-10-03T17:20:34;5.03;;;4.20;;
5587;SDS011;2816;49.778;9.986;2022-10-03T17:23:09;10.27;;;4.27;;
5587;SDS011;2816;49.778;9.986;2022-10-03T17:25:44;14.47;;;5.47;;
5587;SDS011;2816;49.778;9.986;2022-10-03T17:28:22;13.57;;;6.43;;
5587;SDS011;2816;49.778;9.986;2022-10-03T17:30:59;21.80;;;8.30;;
5587;SDS011;2816;49.778;9.986;2022-10-03T17:33:30;19.93;;;10.13;;
5587;SDS011;2816;49.778;9.986;2022-10-03T17:36:09;11.47;;;5.10;;
5587;SDS011;2816;49.778;9.986;2022-10-03T17:39:02;13.63;;;7.33;;
5587;SDS011;2816;49.778;9.986;2022-10-03T17:41:32;16.87;;;8.27;;
5587;SDS011;2816;49.778;9.986;2022-10-03T17:44:12;14.00;;;7.03;;
5587;SDS011;2816;49.778;9.986;2022-10-03T17:46:49;12.40;;;6.77;;
5587;SDS011;2816;49.778;9.986;2022-10-03T17:49:26;12.73;;;6.70;;
5587;SDS011;2816;49.778;9.986;2022-10-03T17:52:12;18.10;;;7.60;;
5587;SDS011;2816;49.778;9.986;2022-10-03T17:54:47;11.47;;;6.50;;
5587;SDS011;2816;49.778;9.986;2022-10-03T17:57:20;9.53;;;6.17;;
5587;SDS011;2816;49.778;9.986;2022-10-03T17:59:51;11.80;;;6.83;;
5587;SDS011;2816;49.778;9.986;2022-10-03T18:02:24;14.83;;;6.50;;
5587;SDS011;2816;49.778;9.986;2022-10-03T18:04:59;15.73;;;7.20;;
5587;SDS011;2816;49.778;9.986;2022-10-03T18:07:31;16.33;;;9.13;;
5587;SDS011;2816;49.778;9.986;2022-10-03T18:10:01;18.73;;;8.57;;
5587;SDS011;2816;49.778;9.986;2022-10-03T18:12:31;18.00;;;9.00;;
5587;SDS011;2816;49.778;9.986;2022-10-03T18:21:25;16.77;;;9.37;;
5587;SDS011;2816;49.778;9.986;2022-10-03T18:24:21;13.43;;;8.00;;
5587;SDS011;2816;49.778;9.986;2022-10-03T18:27:01;17.57;;;7.33;;
5587;SDS011;2816;49.778;9.986;2022-10-03T18:29:35;18.40;;;8.00;;
5587;SDS011;2816;49.778;9.986;2022-10-03T18:32:11;10.50;;;7.13;;
5587;SDS011;2816;49.778;9.986;2022-10-03T18:34:42;13.50;;;6.90;;
5587;SDS011;2816;49.778;9.986;2022-10-03T18:37:16;13.23;;;5.83;;
5587;SDS011;2816;49.778;9.986;2022-10-03T18:40:18;13.80;;;6.57;;
5587;SDS011;2816;49.778;9.986;2022-10-03T18:42:49;10.47;;;6.80;;
5587;SDS011;2816;49.778;9.986;2022-10-03T18:45:19;12.80;;;5.93;;
5587;SDS011;2816;49.778;9.986;2022-10-03T18:47:51;15.17;;;6.90;;
5587;SDS011;2816;49.778;9.986;2022-10-03T18:50:23;13.73;;;5.60;;
5587;SDS011;2816;49.778;9.986;2022-10-03T18:52:55;7.90;;;5.90;;
5587;SDS011;2816;49.778;9.986;2022-10-03T18:55:30;13.80;;;6.30;;
5587;SDS011;2816;49.778;9.986;2022-10-03T18:58:07;11.97;;;6.07;;
5587;SDS011;2816;49.778;9.986;2022-10-03T19:00:44;13.90;;;6.50;;
5587;SDS011;2816;49.778;9.986;2022-10-03T19:03:17;22.23;;;7.17;;
5587;SDS011;2816;49.778;9.986;2022-10-03T19:05:49;12.10;;;6.37;;
5587;SDS011;2816;49.778;9.986;2022-10-03T19:08:20;13.20;;;6.07;;
5587;SDS011;2816;49.778;9.986;2022-10-03T19:10:51;8.93;;;5.63;;
5587;SDS011;2816;49.778;9.986;2022-10-03T19:13:28;11.17;;;6.50;;
5587;SDS011;2816;49.778;9.986;2022-10-03T19:16:23;19.57;;;6.50;;
5587;SDS011;2816;49.778;9.986;2022-10-03T19:19:17;18.83;;;5.60;;
5587;SDS011;2816;49.778;9.986;2022-10-03T19:21:50;13.50;;;5.60;;
5587;SDS011;2816;49.778;9.986;2022-10-03T19:24:19;13.80;;;6.07;;
5587;SDS011;2816;49.778;9.986;2022-10-03T19:26:48;16.33;;;5.80;;
5587;SDS011;2816;49.778;9.986;2022-10-03T19:29:20;13.90;;;5.10;;
5587;SDS011;2816;49.778;9.986;2022-10-03T19:31:56;12.43;;;5.43;;
5587;SDS011;2816;49.778;9.986;2022-10-03T19:34:27;7.63;;;5.30;;
5587;SDS011;2816;49.778;9.986;2022-10-03T19:37:01;16.53;;;5.40;;
5587;SDS011;2816;49.778;9.986;2022-10-03T19:39:32;10.37;;;5.93;;
5587;SDS011;2816;49.778;9.986;2022-10-03T19:42:05;11.30;;;5.70;;
5587;SDS011;2816;49.778;9.986;2022-10-03T19:47:38;10.73;;;5.60;;
5587;SDS011;2816;49.778;9.986;2022-10-03T19:50:12;8.47;;;5.23;;
5587;SDS011;2816;49.778;9.986;2022-10-03T19:52:45;12.27;;;5.90;;
5587;SDS011;2816;49.778;9.986;2022-10-03T19:55:16;9.00;;;5.73;;
5587;SDS011;2816;49.778;9.986;2022-10-03T19:57:47;13.73;;;5.57;;
5587;SDS011;2816;49.778;9.986;2022-10-03T20:00:27;11.27;;;5.27;;
5587;SDS011;2816;49.778;9.986;2022-10-03T20:03:03;12.10;;;5.80;;
5587;SDS011;2816;49.778;9.986;2022-10-03T20:05:41;8.93;;;5.23;;